This is the latest recevied weather packets stored in our database for station/object SA6BET-2. If no packets are shown the sender has not sent any weather packets the latest 10 day(s).
| Time | Temp. | Humidity | Pressure | Rain* | Wind** | Luminosity | Snow |
|---|---|---|---|---|---|---|---|
| 1787388424 | 30° C | 100% | 1017.3 hPa | - | - | - | - |
| 1787387524 | 30° C | 100% | 1017.2 hPa | - | - | - | - |
| 1787386624 | 28.89° C | 100% | 1017.3 hPa | - | - | - | - |
| 1787385724 | 28.89° C | 100% | 1017.2 hPa | - | - | - | - |
| 1787384824 | 28.33° C | 100% | 1017.1 hPa | - | - | - | - |
| 1787383923 | 27.78° C | 100% | 1017.2 hPa | - | - | - | - |
| 1787383023 | 27.78° C | 100% | 1017.2 hPa | - | - | - | - |
| 1787382123 | 27.22° C | 100% | 1017.3 hPa | - | - | - | - |
| 1787381223 | 27.22° C | 100% | 1017.2 hPa | - | - | - | - |
| 1787380662 | 27.22° C | 100% | 1017.1 hPa | - | - | - | - |
| 1787379762 | 26.67° C | 100% | 1016.9 hPa | - | - | - | - |
| 1787378862 | 26.11° C | 100% | 1016.9 hPa | - | - | - | - |
| 1787377962 | 26.11° C | 100% | 1016.8 hPa | - | - | - | - |
| 1787377062 | 25.56° C | 100% | 1016.8 hPa | - | - | - | - |
| 1787376161 | 25.56° C | 100% | 1016.7 hPa | - | - | - | - |
| 1787375261 | 25.56° C | 100% | 1016.6 hPa | - | - | - | - |
| 1787374361 | 25.56° C | 100% | 1016.5 hPa | - | - | - | - |
| 1787373460 | 25.56° C | 100% | 1016.3 hPa | - | - | - | - |
| 1787372560 | 25.56° C | 100% | 1016.3 hPa | - | - | - | - |
| 1787371660 | 25.56° C | 100% | 1016.2 hPa | - | - | - | - |
| 1787370760 | 25.56° C | 100% | 1016.1 hPa | - | - | - | - |
| 1787369944 | 25.56° C | 100% | 1016.2 hPa | - | - | - | - |
| 1787369044 | 26.11° C | 100% | 1016.1 hPa | - | - | - | - |
| 1787368144 | 25.56° C | 100% | 1016.2 hPa | - | - | - | - |
| 1787367243 | 26.11° C | 100% | 1016.1 hPa | - | - | - | - |
* Rain since midnight (hover to see other rain measurements)
** Current wind speed in m/s (hover to see current wind gust speed)